sensor_id;sensor_type;location;lat;lon;timestamp;P1;durP1;ratioP1;P2;durP2;ratioP2
19969;SDS011;10146;47.754;9.566;2022-10-26T00:00:51;6.13;;;3.80;;
19969;SDS011;10146;47.754;9.566;2022-10-26T00:03:26;9.32;;;3.67;;
19969;SDS011;10146;47.754;9.566;2022-10-26T00:05:51;10.32;;;4.10;;
19969;SDS011;10146;47.754;9.566;2022-10-26T00:08:17;9.35;;;4.63;;
19969;SDS011;10146;47.754;9.566;2022-10-26T00:10:42;7.82;;;4.05;;
19969;SDS011;10146;47.754;9.566;2022-10-26T00:13:09;6.28;;;3.63;;
19969;SDS011;10146;47.754;9.566;2022-10-26T00:15:39;8.07;;;4.20;;
19969;SDS011;10146;47.754;9.566;2022-10-26T00:18:06;7.28;;;4.47;;
19969;SDS011;10146;47.754;9.566;2022-10-26T00:20:31;7.95;;;4.22;;
19969;SDS011;10146;47.754;9.566;2022-10-26T00:22:57;9.88;;;4.15;;
19969;SDS011;10146;47.754;9.566;2022-10-26T00:25:22;9.07;;;3.88;;
19969;SDS011;10146;47.754;9.566;2022-10-26T00:27:48;6.95;;;3.85;;
19969;SDS011;10146;47.754;9.566;2022-10-26T00:30:14;6.20;;;3.78;;
19969;SDS011;10146;47.754;9.566;2022-10-26T00:32:39;7.95;;;3.83;;
19969;SDS011;10146;47.754;9.566;2022-10-26T00:35:05;9.50;;;4.03;;
19969;SDS011;10146;47.754;9.566;2022-10-26T00:37:31;9.50;;;4.05;;
19969;SDS011;10146;47.754;9.566;2022-10-26T00:39:56;9.27;;;3.85;;
19969;SDS011;10146;47.754;9.566;2022-10-26T00:42:22;8.23;;;3.28;;
19969;SDS011;10146;47.754;9.566;2022-10-26T00:49:46;5.93;;;3.47;;
19969;SDS011;10146;47.754;9.566;2022-10-26T00:52:15;8.75;;;3.17;;
19969;SDS011;10146;47.754;9.566;2022-10-26T00:54:43;7.32;;;4.03;;
19969;SDS011;10146;47.754;9.566;2022-10-26T00:57:09;7.90;;;3.83;;
19969;SDS011;10146;47.754;9.566;2022-10-26T00:59:39;9.40;;;3.90;;
19969;SDS011;10146;47.754;9.566;2022-10-26T01:02:06;8.15;;;3.88;;
19969;SDS011;10146;47.754;9.566;2022-10-26T01:04:32;6.47;;;3.30;;
19969;SDS011;10146;47.754;9.566;2022-10-26T01:06:59;8.55;;;3.67;;
19969;SDS011;10146;47.754;9.566;2022-10-26T01:09:27;7.55;;;3.40;;
19969;SDS011;10146;47.754;9.566;2022-10-26T01:11:53;5.85;;;3.60;;
19969;SDS011;10146;47.754;9.566;2022-10-26T01:14:19;8.32;;;3.53;;
19969;SDS011;10146;47.754;9.566;2022-10-26T01:27:55;6.60;;;3.30;;
19969;SDS011;10146;47.754;9.566;2022-10-26T01:30:40;7.30;;;3.60;;
19969;SDS011;10146;47.754;9.566;2022-10-26T01:33:19;6.65;;;3.10;;
19969;SDS011;10146;47.754;9.566;2022-10-26T01:36:02;11.40;;;3.70;;
19969;SDS011;10146;47.754;9.566;2022-10-26T01:38:54;5.85;;;3.15;;
19969;SDS011;10146;47.754;9.566;2022-10-26T01:44:00;8.23;;;3.75;;
19969;SDS011;10146;47.754;9.566;2022-10-26T01:46:29;8.75;;;3.80;;
19969;SDS011;10146;47.754;9.566;2022-10-26T01:49:00;12.18;;;4.15;;
19969;SDS011;10146;47.754;9.566;2022-10-26T01:51:31;12.20;;;4.22;;
19969;SDS011;10146;47.754;9.566;2022-10-26T01:53:58;8.05;;;3.67;;
19969;SDS011;10146;47.754;9.566;2022-10-26T01:56:24;8.65;;;4.05;;
19969;SDS011;10146;47.754;9.566;2022-10-26T02:01:58;8.98;;;3.88;;
19969;SDS011;10146;47.754;9.566;2022-10-26T02:10:28;10.73;;;3.85;;
19969;SDS011;10146;47.754;9.566;2022-10-26T02:15:51;8.05;;;3.50;;
19969;SDS011;10146;47.754;9.566;2022-10-26T02:18:28;8.73;;;4.13;;
19969;SDS011;10146;47.754;9.566;2022-10-26T02:21:02;6.47;;;3.92;;
19969;SDS011;10146;47.754;9.566;2022-10-26T02:23:36;8.00;;;4.13;;
19969;SDS011;10146;47.754;9.566;2022-10-26T02:26:06;6.07;;;3.88;;
19969;SDS011;10146;47.754;9.566;2022-10-26T02:28:35;6.65;;;3.65;;
19969;SDS011;10146;47.754;9.566;2022-10-26T02:31:06;9.60;;;3.63;;
19969;SDS011;10146;47.754;9.566;2022-10-26T02:33:35;5.05;;;3.60;;
19969;SDS011;10146;47.754;9.566;2022-10-26T02:36:06;10.80;;;4.43;;
19969;SDS011;10146;47.754;9.566;2022-10-26T02:38:35;7.35;;;3.75;;
19969;SDS011;10146;47.754;9.566;2022-10-26T02:41:03;5.45;;;3.75;;
19969;SDS011;10146;47.754;9.566;2022-10-26T02:43:31;4.95;;;3.67;;
19969;SDS011;10146;47.754;9.566;2022-10-26T02:46:04;8.07;;;4.10;;
19969;SDS011;10146;47.754;9.566;2022-10-26T02:48:33;6.25;;;3.42;;
19969;SDS011;10146;47.754;9.566;2022-10-26T02:56:36;7.32;;;4.35;;
19969;SDS011;10146;47.754;9.566;2022-10-26T02:59:10;6.05;;;4.30;;
19969;SDS011;10146;47.754;9.566;2022-10-26T03:01:37;6.55;;;4.10;;
19969;SDS011;10146;47.754;9.566;2022-10-26T03:04:04;7.43;;;4.53;;
19969;SDS011;10146;47.754;9.566;2022-10-26T03:06:30;8.35;;;4.32;;
19969;SDS011;10146;47.754;9.566;2022-10-26T03:08:55;6.00;;;4.80;;
19969;SDS011;10146;47.754;9.566;2022-10-26T03:11:21;8.02;;;5.28;;
19969;SDS011;10146;47.754;9.566;2022-10-26T03:13:46;8.95;;;5.65;;
19969;SDS011;10146;47.754;9.566;2022-10-26T03:16:12;7.82;;;5.07;;
19969;SDS011;10146;47.754;9.566;2022-10-26T03:18:38;9.00;;;4.05;;
19969;SDS011;10146;47.754;9.566;2022-10-26T03:21:03;8.88;;;4.80;;
19969;SDS011;10146;47.754;9.566;2022-10-26T03:23:29;6.88;;;3.65;;
19969;SDS011;10146;47.754;9.566;2022-10-26T03:25:55;7.93;;;5.40;;
19969;SDS011;10146;47.754;9.566;2022-10-26T03:28:22;8.98;;;6.40;;
19969;SDS011;10146;47.754;9.566;2022-10-26T03:30:47;9.02;;;6.50;;
19969;SDS011;10146;47.754;9.566;2022-10-26T03:33:13;9.95;;;6.65;;
19969;SDS011;10146;47.754;9.566;2022-10-26T03:35:39;10.13;;;6.40;;
19969;SDS011;10146;47.754;9.566;2022-10-26T03:38:04;8.77;;;6.00;;
19969;SDS011;10146;47.754;9.566;2022-10-26T03:40:30;7.88;;;5.75;;
19969;SDS011;10146;47.754;9.566;2022-10-26T03:42:56;11.23;;;5.70;;
19969;SDS011;10146;47.754;9.566;2022-10-26T03:45:21;8.48;;;5.90;;
19969;SDS011;10146;47.754;9.566;2022-10-26T03:47:47;10.20;;;6.43;;
19969;SDS011;10146;47.754;9.566;2022-10-26T03:50:14;7.78;;;6.25;;
19969;SDS011;10146;47.754;9.566;2022-10-26T03:52:42;9.45;;;6.88;;
19969;SDS011;10146;47.754;9.566;2022-10-26T03:55:08;11.40;;;7.25;;
19969;SDS011;10146;47.754;9.566;2022-10-26T03:57:38;9.90;;;6.90;;
19969;SDS011;10146;47.754;9.566;2022-10-26T04:00:05;8.38;;;7.45;;
19969;SDS011;10146;47.754;9.566;2022-10-26T04:02:31;9.80;;;7.82;;
19969;SDS011;10146;47.754;9.566;2022-10-26T04:04:57;13.15;;;7.80;;
19969;SDS011;10146;47.754;9.566;2022-10-26T04:07:23;10.18;;;7.53;;
19969;SDS011;10146;47.754;9.566;2022-10-26T04:09:48;9.10;;;8.05;;
19969;SDS011;10146;47.754;9.566;2022-10-26T04:12:14;12.70;;;8.27;;
19969;SDS011;10146;47.754;9.566;2022-10-26T04:14:39;11.52;;;7.75;;
19969;SDS011;10146;47.754;9.566;2022-10-26T04:17:05;9.52;;;7.95;;
19969;SDS011;10146;47.754;9.566;2022-10-26T04:19:30;12.43;;;7.82;;
19969;SDS011;10146;47.754;9.566;2022-10-26T04:21:56;14.70;;;7.60;;
19969;SDS011;10146;47.754;9.566;2022-10-26T04:24:21;9.15;;;8.20;;
19969;SDS011;10146;47.754;9.566;2022-10-26T04:26:47;10.48;;;8.27;;
19969;SDS011;10146;47.754;9.566;2022-10-26T04:29:12;13.27;;;8.63;;
19969;SDS011;10146;47.754;9.566;2022-10-26T04:31:38;9.70;;;8.30;;
19969;SDS011;10146;47.754;9.566;2022-10-26T04:34:05;12.15;;;7.82;;
19969;SDS011;10146;47.754;9.566;2022-10-26T04:36:30;9.75;;;8.75;;
19969;SDS011;10146;47.754;9.566;2022-10-26T04:38:56;11.05;;;8.43;;
19969;SDS011;10146;47.754;9.566;2022-10-26T04:41:21;10.27;;;8.45;;
19969;SDS011;10146;47.754;9.566;2022-10-26T04:43:47;10.25;;;8.35;;
19969;SDS011;10146;47.754;9.566;2022-10-26T04:46:13;11.68;;;8.65;;
19969;SDS011;10146;47.754;9.566;2022-10-26T04:48:38;9.88;;;8.80;;
19969;SDS011;10146;47.754;9.566;2022-10-26T04:51:04;13.30;;;9.10;;
19969;SDS011;10146;47.754;9.566;2022-10-26T04:53:30;11.52;;;9.68;;
19969;SDS011;10146;47.754;9.566;2022-10-26T04:55:59;12.18;;;10.63;;
19969;SDS011;10146;47.754;9.566;2022-10-26T04:58:26;11.68;;;8.82;;
19969;SDS011;10146;47.754;9.566;2022-10-26T05:00:52;11.77;;;10.57;;
19969;SDS011;10146;47.754;9.566;2022-10-26T05:03:18;14.93;;;11.32;;
19969;SDS011;10146;47.754;9.566;2022-10-26T05:05:44;15.77;;;10.95;;
19969;SDS011;10146;47.754;9.566;2022-10-26T05:08:11;11.80;;;10.40;;
19969;SDS011;10146;47.754;9.566;2022-10-26T05:10:38;14.35;;;12.10;;
19969;SDS011;10146;47.754;9.566;2022-10-26T05:13:03;16.20;;;13.00;;
19969;SDS011;10146;47.754;9.566;2022-10-26T05:15:29;14.57;;;12.82;;
19969;SDS011;10146;47.754;9.566;2022-10-26T05:17:55;13.25;;;11.23;;
19969;SDS011;10146;47.754;9.566;2022-10-26T05:20:22;16.00;;;12.52;;
19969;SDS011;10146;47.754;9.566;2022-10-26T05:22:53;14.02;;;11.70;;
19969;SDS011;10146;47.754;9.566;2022-10-26T05:25:19;15.85;;;11.95;;
19969;SDS011;10146;47.754;9.566;2022-10-26T05:27:45;19.85;;;13.55;;
19969;SDS011;10146;47.754;9.566;2022-10-26T05:30:10;14.98;;;11.63;;
19969;SDS011;10146;47.754;9.566;2022-10-26T05:32:36;14.35;;;11.05;;
19969;SDS011;10146;47.754;9.566;2022-10-26T05:35:02;16.05;;;11.27;;
19969;SDS011;10146;47.754;9.566;2022-10-26T05:37:28;10.63;;;9.57;;
19969;SDS011;10146;47.754;9.566;2022-10-26T05:39:53;13.32;;;12.00;;
19969;SDS011;10146;47.754;9.566;2022-10-26T05:42:19;13.88;;;11.85;;
19969;SDS011;10146;47.754;9.566;2022-10-26T05:44:45;17.80;;;12.15;;
19969;SDS011;10146;47.754;9.566;2022-10-26T05:47:10;16.13;;;13.82;;
19969;SDS011;10146;47.754;9.566;2022-10-26T05:49:36;18.10;;;14.65;;
19969;SDS011;10146;47.754;9.566;2022-10-26T05:52:02;14.48;;;12.93;;
19969;SDS011;10146;47.754;9.566;2022-10-26T05:54:27;16.92;;;14.45;;
19969;SDS011;10146;47.754;9.566;2022-10-26T05:56:53;17.95;;;14.68;;
19969;SDS011;10146;47.754;9.566;2022-10-26T05:59:19;16.45;;;14.23;;
19969;SDS011;10146;47.754;9.566;2022-10-26T06:04:28;18.60;;;16.58;;
19969;SDS011;10146;47.754;9.566;2022-10-26T06:07:10;16.40;;;11.85;;
19969;SDS011;10146;47.754;9.566;2022-10-26T06:09:38;14.57;;;12.88;;
19969;SDS011;10146;47.754;9.566;2022-10-26T06:12:05;14.95;;;12.23;;
19969;SDS011;10146;47.754;9.566;2022-10-26T06:14:32;13.55;;;12.15;;
19969;SDS011;10146;47.754;9.566;2022-10-26T06:17:05;12.75;;;11.40;;
19969;SDS011;10146;47.754;9.566;2022-10-26T06:28:15;12.35;;;10.05;;
19969;SDS011;10146;47.754;9.566;2022-10-26T06:30:43;16.38;;;11.57;;
19969;SDS011;10146;47.754;9.566;2022-10-26T06:33:09;14.73;;;11.10;;
19969;SDS011;10146;47.754;9.566;2022-10-26T06:35:43;10.63;;;9.48;;
19969;SDS011;10146;47.754;9.566;2022-10-26T06:38:15;12.77;;;9.77;;
19969;SDS011;10146;47.754;9.566;2022-10-26T06:40:44;13.27;;;10.10;;
19969;SDS011;10146;47.754;9.566;2022-10-26T06:43:23;11.73;;;10.20;;
19969;SDS011;10146;47.754;9.566;2022-10-26T06:54:26;12.63;;;11.35;;
19969;SDS011;10146;47.754;9.566;2022-10-26T06:57:17;13.07;;;11.70;;
19969;SDS011;10146;47.754;9.566;2022-10-26T06:59:45;14.60;;;11.20;;
19969;SDS011;10146;47.754;9.566;2022-10-26T07:02:14;16.67;;;11.05;;
19969;SDS011;10146;47.754;9.566;2022-10-26T07:04:41;11.95;;;10.75;;
19969;SDS011;10146;47.754;9.566;2022-10-26T07:07:10;16.10;;;11.80;;
19969;SDS011;10146;47.754;9.566;2022-10-26T07:09:38;13.15;;;10.27;;
19969;SDS011;10146;47.754;9.566;2022-10-26T07:12:04;14.85;;;11.82;;
19969;SDS011;10146;47.754;9.566;2022-10-26T07:14:30;13.82;;;12.40;;
19969;SDS011;10146;47.754;9.566;2022-10-26T07:16:55;16.08;;;13.00;;
19969;SDS011;10146;47.754;9.566;2022-10-26T07:19:21;13.73;;;12.07;;
19969;SDS011;10146;47.754;9.566;2022-10-26T07:21:47;15.68;;;12.40;;
19969;SDS011;10146;47.754;9.566;2022-10-26T07:24:13;15.95;;;13.27;;
19969;SDS011;10146;47.754;9.566;2022-10-26T07:26:38;12.40;;;11.13;;
19969;SDS011;10146;47.754;9.566;2022-10-26T07:29:04;12.32;;;11.10;;
19969;SDS011;10146;47.754;9.566;2022-10-26T07:31:29;13.50;;;11.45;;
19969;SDS011;10146;47.754;9.566;2022-10-26T07:33:55;15.25;;;11.15;;
19969;SDS011;10146;47.754;9.566;2022-10-26T07:36:21;10.73;;;9.68;;
19969;SDS011;10146;47.754;9.566;2022-10-26T07:38:46;10.07;;;8.68;;
19969;SDS011;10146;47.754;9.566;2022-10-26T07:41:15;10.35;;;8.82;;
19969;SDS011;10146;47.754;9.566;2022-10-26T07:43:41;10.85;;;8.32;;
19969;SDS011;10146;47.754;9.566;2022-10-26T07:46:09;13.38;;;9.05;;
19969;SDS011;10146;47.754;9.566;2022-10-26T07:48:34;8.93;;;8.05;;
19969;SDS011;10146;47.754;9.566;2022-10-26T07:51:00;10.57;;;9.57;;
19969;SDS011;10146;47.754;9.566;2022-10-26T07:53:26;11.43;;;10.13;;
19969;SDS011;10146;47.754;9.566;2022-10-26T07:55:55;11.85;;;10.65;;
19969;SDS011;10146;47.754;9.566;2022-10-26T07:58:21;15.07;;;12.95;;
19969;SDS011;10146;47.754;9.566;2022-10-26T08:00:49;17.80;;;11.85;;
19969;SDS011;10146;47.754;9.566;2022-10-26T08:03:16;11.20;;;10.20;;
19969;SDS011;10146;47.754;9.566;2022-10-26T08:05:46;10.73;;;9.55;;
19969;SDS011;10146;47.754;9.566;2022-10-26T08:08:17;11.43;;;9.57;;
19969;SDS011;10146;47.754;9.566;2022-10-26T08:10:43;10.07;;;9.07;;
19969;SDS011;10146;47.754;9.566;2022-10-26T08:13:10;12.63;;;8.55;;
19969;SDS011;10146;47.754;9.566;2022-10-26T08:15:36;10.88;;;8.75;;
19969;SDS011;10146;47.754;9.566;2022-10-26T08:18:02;10.73;;;8.20;;
19969;SDS011;10146;47.754;9.566;2022-10-26T08:20:28;9.25;;;7.68;;
19969;SDS011;10146;47.754;9.566;2022-10-26T08:22:57;11.10;;;8.98;;
19969;SDS011;10146;47.754;9.566;2022-10-26T08:25:24;12.70;;;7.95;;
19969;SDS011;10146;47.754;9.566;2022-10-26T08:27:49;9.48;;;8.10;;
19969;SDS011;10146;47.754;9.566;2022-10-26T08:30:15;8.85;;;7.95;;
19969;SDS011;10146;47.754;9.566;2022-10-26T08:32:41;9.70;;;7.72;;
19969;SDS011;10146;47.754;9.566;2022-10-26T08:35:08;12.27;;;8.52;;
19969;SDS011;10146;47.754;9.566;2022-10-26T08:37:34;8.57;;;7.78;;
19969;SDS011;10146;47.754;9.566;2022-10-26T08:40:00;10.85;;;9.45;;
19969;SDS011;10146;47.754;9.566;2022-10-26T08:42:30;12.63;;;8.50;;
19969;SDS011;10146;47.754;9.566;2022-10-26T08:45:14;10.05;;;7.95;;
19969;SDS011;10146;47.754;9.566;2022-10-26T08:48:13;7.65;;;6.85;;
19969;SDS011;10146;47.754;9.566;2022-10-26T08:50:50;6.63;;;6.10;;
19969;SDS011;10146;47.754;9.566;2022-10-26T08:58:44;11.70;;;5.90;;
19969;SDS011;10146;47.754;9.566;2022-10-26T09:01:15;9.35;;;4.65;;
19969;SDS011;10146;47.754;9.566;2022-10-26T09:03:41;5.47;;;3.53;;
19969;SDS011;10146;47.754;9.566;2022-10-26T09:08:56;6.75;;;3.53;;
19969;SDS011;10146;47.754;9.566;2022-10-26T09:29:13;6.57;;;3.67;;
19969;SDS011;10146;47.754;9.566;2022-10-26T09:31:40;4.03;;;3.60;;
19969;SDS011;10146;47.754;9.566;2022-10-26T09:34:11;4.40;;;3.88;;
19969;SDS011;10146;47.754;9.566;2022-10-26T09:36:44;7.25;;;4.22;;
19969;SDS011;10146;47.754;9.566;2022-10-26T09:39:18;5.78;;;4.32;;
19969;SDS011;10146;47.754;9.566;2022-10-26T09:41:56;4.43;;;3.53;;
19969;SDS011;10146;47.754;9.566;2022-10-26T09:44:35;7.32;;;4.00;;
19969;SDS011;10146;47.754;9.566;2022-10-26T09:47:14;5.53;;;3.42;;
19969;SDS011;10146;47.754;9.566;2022-10-26T09:49:58;6.35;;;3.60;;
19969;SDS011;10146;47.754;9.566;2022-10-26T09:52:28;6.20;;;3.28;;
19969;SDS011;10146;47.754;9.566;2022-10-26T09:54:54;7.18;;;2.60;;
19969;SDS011;10146;47.754;9.566;2022-10-26T09:57:19;4.65;;;2.17;;
19969;SDS011;10146;47.754;9.566;2022-10-26T09:59:45;5.43;;;2.38;;
19969;SDS011;10146;47.754;9.566;2022-10-26T10:05:15;3.88;;;2.03;;
19969;SDS011;10146;47.754;9.566;2022-10-26T10:07:49;4.95;;;2.30;;
19969;SDS011;10146;47.754;9.566;2022-10-26T10:10:17;6.18;;;2.65;;
19969;SDS011;10146;47.754;9.566;2022-10-26T10:12:45;6.63;;;2.58;;
19969;SDS011;10146;47.754;9.566;2022-10-26T10:17:47;7.65;;;2.70;;
19969;SDS011;10146;47.754;9.566;2022-10-26T10:20:18;5.03;;;2.60;;
19969;SDS011;10146;47.754;9.566;2022-10-26T10:22:58;4.50;;;2.30;;
19969;SDS011;10146;47.754;9.566;2022-10-26T10:25:35;4.45;;;2.13;;
19969;SDS011;10146;47.754;9.566;2022-10-26T10:28:18;5.25;;;2.55;;
19969;SDS011;10146;47.754;9.566;2022-10-26T10:30:55;5.78;;;2.95;;
19969;SDS011;10146;47.754;9.566;2022-10-26T10:33:33;3.65;;;2.50;;
19969;SDS011;10146;47.754;9.566;2022-10-26T10:36:04;6.45;;;3.20;;
19969;SDS011;10146;47.754;9.566;2022-10-26T10:38:37;5.40;;;3.08;;
19969;SDS011;10146;47.754;9.566;2022-10-26T10:41:04;6.63;;;2.90;;
19969;SDS011;10146;47.754;9.566;2022-10-26T10:43:42;4.00;;;2.30;;
19969;SDS011;10146;47.754;9.566;2022-10-26T10:46:20;6.13;;;2.92;;
19969;SDS011;10146;47.754;9.566;2022-10-26T10:48:51;5.55;;;2.38;;
19969;SDS011;10146;47.754;9.566;2022-10-26T10:51:20;5.32;;;2.65;;
19969;SDS011;10146;47.754;9.566;2022-10-26T11:07:24;5.70;;;2.75;;
19969;SDS011;10146;47.754;9.566;2022-10-26T11:09:52;7.05;;;2.60;;
19969;SDS011;10146;47.754;9.566;2022-10-26T11:12:23;5.07;;;2.50;;
19969;SDS011;10146;47.754;9.566;2022-10-26T11:15:14;4.60;;;2.83;;
19969;SDS011;10146;47.754;9.566;2022-10-26T11:20:32;7.00;;;2.70;;
19969;SDS011;10146;47.754;9.566;2022-10-26T11:23:10;4.55;;;2.60;;
19969;SDS011;10146;47.754;9.566;2022-10-26T11:25:52;4.80;;;2.53;;
19969;SDS011;10146;47.754;9.566;2022-10-26T11:28:34;4.47;;;2.72;;
19969;SDS011;10146;47.754;9.566;2022-10-26T11:31:14;5.50;;;2.33;;
19969;SDS011;10146;47.754;9.566;2022-10-26T11:33:56;6.13;;;2.50;;
19969;SDS011;10146;47.754;9.566;2022-10-26T11:36:32;7.68;;;2.63;;
19969;SDS011;10146;47.754;9.566;2022-10-26T11:39:00;5.68;;;2.25;;
19969;SDS011;10146;47.754;9.566;2022-10-26T11:41:39;4.18;;;2.10;;
19969;SDS011;10146;47.754;9.566;2022-10-26T11:44:37;3.17;;;1.90;;
19969;SDS011;10146;47.754;9.566;2022-10-26T11:47:17;5.38;;;2.00;;
19969;SDS011;10146;47.754;9.566;2022-10-26T11:50:04;3.40;;;2.00;;
19969;SDS011;10146;47.754;9.566;2022-10-26T11:55:07;4.43;;;1.90;;
19969;SDS011;10146;47.754;9.566;2022-10-26T11:57:35;4.80;;;1.98;;
19969;SDS011;10146;47.754;9.566;2022-10-26T12:00:13;4.78;;;1.58;;
19969;SDS011;10146;47.754;9.566;2022-10-26T12:03:07;3.83;;;1.80;;
19969;SDS011;10146;47.754;9.566;2022-10-26T12:08:05;7.10;;;2.90;;
19969;SDS011;10146;47.754;9.566;2022-10-26T12:10:38;4.75;;;2.10;;
19969;SDS011;10146;47.754;9.566;2022-10-26T12:18:44;6.15;;;2.72;;
19969;SDS011;10146;47.754;9.566;2022-10-26T12:21:14;5.43;;;2.60;;
19969;SDS011;10146;47.754;9.566;2022-10-26T12:34:09;8.55;;;2.38;;
19969;SDS011;10146;47.754;9.566;2022-10-26T12:39:33;7.50;;;2.30;;
19969;SDS011;10146;47.754;9.566;2022-10-26T12:46:59;6.65;;;2.38;;
19969;SDS011;10146;47.754;9.566;2022-10-26T12:55:34;10.45;;;2.78;;
19969;SDS011;10146;47.754;9.566;2022-10-26T13:08:25;8.55;;;2.50;;
19969;SDS011;10146;47.754;9.566;2022-10-26T13:11:02;7.15;;;2.53;;
19969;SDS011;10146;47.754;9.566;2022-10-26T13:13:31;12.23;;;3.20;;
19969;SDS011;10146;47.754;9.566;2022-10-26T13:15:58;5.45;;;2.50;;
19969;SDS011;10146;47.754;9.566;2022-10-26T13:18:26;7.93;;;2.67;;
19969;SDS011;10146;47.754;9.566;2022-10-26T13:23:31;7.53;;;2.35;;
19969;SDS011;10146;47.754;9.566;2022-10-26T13:26:03;7.97;;;2.97;;
19969;SDS011;10146;47.754;9.566;2022-10-26T13:28:30;5.60;;;2.50;;
19969;SDS011;10146;47.754;9.566;2022-10-26T13:31:03;6.63;;;2.70;;
19969;SDS011;10146;47.754;9.566;2022-10-26T13:33:36;8.60;;;2.40;;
19969;SDS011;10146;47.754;9.566;2022-10-26T13:36:17;10.00;;;2.60;;
19969;SDS011;10146;47.754;9.566;2022-10-26T13:38:51;7.85;;;2.63;;
19969;SDS011;10146;47.754;9.566;2022-10-26T13:41:25;7.32;;;2.97;;
19969;SDS011;10146;47.754;9.566;2022-10-26T13:43:57;9.38;;;2.75;;
19969;SDS011;10146;47.754;9.566;2022-10-26T13:46:27;11.50;;;2.88;;
19969;SDS011;10146;47.754;9.566;2022-10-26T13:48:58;11.98;;;3.63;;
19969;SDS011;10146;47.754;9.566;2022-10-26T13:51:34;10.27;;;2.63;;
19969;SDS011;10146;47.754;9.566;2022-10-26T13:54:15;9.55;;;2.88;;
19969;SDS011;10146;47.754;9.566;2022-10-26T13:57:02;9.05;;;2.95;;
19969;SDS011;10146;47.754;9.566;2022-10-26T13:59:37;9.60;;;2.72;;
19969;SDS011;10146;47.754;9.566;2022-10-26T14:02:13;8.88;;;2.80;;
19969;SDS011;10146;47.754;9.566;2022-10-26T14:04:43;8.68;;;2.70;;
19969;SDS011;10146;47.754;9.566;2022-10-26T14:07:15;5.85;;;2.20;;
19969;SDS011;10146;47.754;9.566;2022-10-26T14:09:48;6.95;;;2.72;;
19969;SDS011;10146;47.754;9.566;2022-10-26T14:12:15;6.30;;;2.75;;
19969;SDS011;10146;47.754;9.566;2022-10-26T14:14:41;8.25;;;2.67;;
19969;SDS011;10146;47.754;9.566;2022-10-26T14:17:13;9.52;;;3.05;;
19969;SDS011;10146;47.754;9.566;2022-10-26T14:19:43;8.13;;;2.67;;
19969;SDS011;10146;47.754;9.566;2022-10-26T14:22:19;8.52;;;2.67;;
19969;SDS011;10146;47.754;9.566;2022-10-26T14:24:51;7.97;;;2.58;;
19969;SDS011;10146;47.754;9.566;2022-10-26T14:27:22;8.85;;;3.10;;
19969;SDS011;10146;47.754;9.566;2022-10-26T14:29:50;11.00;;;2.72;;
19969;SDS011;10146;47.754;9.566;2022-10-26T14:32:27;8.30;;;2.53;;
19969;SDS011;10146;47.754;9.566;2022-10-26T14:34:54;11.93;;;3.15;;
19969;SDS011;10146;47.754;9.566;2022-10-26T14:40:25;10.48;;;3.17;;
19969;SDS011;10146;47.754;9.566;2022-10-26T14:42:55;8.90;;;3.55;;
19969;SDS011;10146;47.754;9.566;2022-10-26T14:47:52;8.80;;;3.10;;
19969;SDS011;10146;47.754;9.566;2022-10-26T14:50:19;9.07;;;3.40;;
19969;SDS011;10146;47.754;9.566;2022-10-26T14:53:12;9.55;;;3.22;;
19969;SDS011;10146;47.754;9.566;2022-10-26T14:55:48;10.48;;;2.80;;
19969;SDS011;10146;47.754;9.566;2022-10-26T14:58:22;8.45;;;2.30;;
19969;SDS011;10146;47.754;9.566;2022-10-26T15:03:39;9.82;;;2.58;;
19969;SDS011;10146;47.754;9.566;2022-10-26T15:09:27;10.20;;;3.10;;
19969;SDS011;10146;47.754;9.566;2022-10-26T15:12:01;8.65;;;3.33;;
19969;SDS011;10146;47.754;9.566;2022-10-26T15:14:29;8.48;;;3.10;;
19969;SDS011;10146;47.754;9.566;2022-10-26T15:16:55;11.27;;;2.97;;
19969;SDS011;10146;47.754;9.566;2022-10-26T15:19:22;9.95;;;3.13;;
19969;SDS011;10146;47.754;9.566;2022-10-26T15:21:50;7.65;;;2.90;;
19969;SDS011;10146;47.754;9.566;2022-10-26T15:26:54;12.68;;;3.20;;
19969;SDS011;10146;47.754;9.566;2022-10-26T15:32:02;11.20;;;3.35;;
19969;SDS011;10146;47.754;9.566;2022-10-26T15:34:29;11.95;;;3.50;;
19969;SDS011;10146;47.754;9.566;2022-10-26T15:36:55;9.80;;;3.58;;
19969;SDS011;10146;47.754;9.566;2022-10-26T15:39:20;9.07;;;3.25;;
19969;SDS011;10146;47.754;9.566;2022-10-26T15:41:47;9.35;;;3.13;;
19969;SDS011;10146;47.754;9.566;2022-10-26T15:44:16;8.93;;;3.17;;
19969;SDS011;10146;47.754;9.566;2022-10-26T15:46:45;6.70;;;2.95;;
19969;SDS011;10146;47.754;9.566;2022-10-26T15:49:14;10.52;;;3.30;;
19969;SDS011;10146;47.754;9.566;2022-10-26T15:51:43;10.98;;;3.35;;
19969;SDS011;10146;47.754;9.566;2022-10-26T15:54:10;8.35;;;2.92;;
19969;SDS011;10146;47.754;9.566;2022-10-26T15:56:35;8.48;;;3.35;;
19969;SDS011;10146;47.754;9.566;2022-10-26T15:59:04;8.40;;;3.28;;
19969;SDS011;10146;47.754;9.566;2022-10-26T16:01:40;12.00;;;3.63;;
19969;SDS011;10146;47.754;9.566;2022-10-26T16:04:07;9.73;;;3.22;;
19969;SDS011;10146;47.754;9.566;2022-10-26T16:06:35;9.95;;;3.50;;
19969;SDS011;10146;47.754;9.566;2022-10-26T16:09:03;13.95;;;4.00;;
19969;SDS011;10146;47.754;9.566;2022-10-26T16:11:30;6.97;;;3.17;;
19969;SDS011;10146;47.754;9.566;2022-10-26T16:13:56;8.20;;;3.13;;
19969;SDS011;10146;47.754;9.566;2022-10-26T16:16:22;12.30;;;4.03;;
19969;SDS011;10146;47.754;9.566;2022-10-26T16:18:51;10.35;;;3.40;;
19969;SDS011;10146;47.754;9.566;2022-10-26T16:21:18;11.73;;;3.40;;
19969;SDS011;10146;47.754;9.566;2022-10-26T16:23:46;8.73;;;3.47;;
19969;SDS011;10146;47.754;9.566;2022-10-26T16:26:13;8.65;;;3.58;;
19969;SDS011;10146;47.754;9.566;2022-10-26T16:28:38;8.30;;;3.70;;
19969;SDS011;10146;47.754;9.566;2022-10-26T16:31:05;9.45;;;4.07;;
19969;SDS011;10146;47.754;9.566;2022-10-26T16:33:33;7.18;;;3.75;;
19969;SDS011;10146;47.754;9.566;2022-10-26T16:36:01;8.65;;;3.85;;
19969;SDS011;10146;47.754;9.566;2022-10-26T16:38:29;12.80;;;4.22;;
19969;SDS011;10146;47.754;9.566;2022-10-26T16:41:03;9.50;;;3.60;;
19969;SDS011;10146;47.754;9.566;2022-10-26T16:43:34;11.45;;;4.28;;
19969;SDS011;10146;47.754;9.566;2022-10-26T16:46:12;9.77;;;4.93;;
19969;SDS011;10146;47.754;9.566;2022-10-26T16:48:40;12.65;;;4.63;;
19969;SDS011;10146;47.754;9.566;2022-10-26T16:51:10;15.00;;;4.78;;
19969;SDS011;10146;47.754;9.566;2022-10-26T16:53:48;9.77;;;4.47;;
19969;SDS011;10146;47.754;9.566;2022-10-26T16:56:16;11.77;;;4.95;;
19969;SDS011;10146;47.754;9.566;2022-10-26T16:58:43;11.18;;;4.93;;
19969;SDS011;10146;47.754;9.566;2022-10-26T17:01:09;13.05;;;4.95;;
19969;SDS011;10146;47.754;9.566;2022-10-26T17:03:37;11.38;;;4.88;;
19969;SDS011;10146;47.754;9.566;2022-10-26T17:06:05;12.70;;;5.00;;
19969;SDS011;10146;47.754;9.566;2022-10-26T17:08:32;9.45;;;4.78;;
19969;SDS011;10146;47.754;9.566;2022-10-26T17:11:03;10.15;;;4.43;;
19969;SDS011;10146;47.754;9.566;2022-10-26T17:13:30;13.55;;;5.03;;
19969;SDS011;10146;47.754;9.566;2022-10-26T17:16:00;14.90;;;5.15;;
19969;SDS011;10146;47.754;9.566;2022-10-26T17:18:26;14.77;;;7.20;;
19969;SDS011;10146;47.754;9.566;2022-10-26T17:20:52;13.05;;;6.22;;
19969;SDS011;10146;47.754;9.566;2022-10-26T17:23:18;9.85;;;5.63;;
19969;SDS011;10146;47.754;9.566;2022-10-26T17:25:43;11.30;;;5.88;;
19969;SDS011;10146;47.754;9.566;2022-10-26T17:28:09;13.98;;;6.47;;
19969;SDS011;10146;47.754;9.566;2022-10-26T17:30:35;16.35;;;6.72;;
19969;SDS011;10146;47.754;9.566;2022-10-26T17:33:01;13.93;;;6.47;;
19969;SDS011;10146;47.754;9.566;2022-10-26T17:35:27;14.55;;;6.68;;
19969;SDS011;10146;47.754;9.566;2022-10-26T17:37:53;11.90;;;5.88;;
19969;SDS011;10146;47.754;9.566;2022-10-26T17:40:18;12.18;;;5.75;;
19969;SDS011;10146;47.754;9.566;2022-10-26T17:42:44;11.70;;;5.78;;